sensor_id;sensor_type;location;lat;lon;timestamp;temperature;humidity
1225;DHT22;602;48.000;7.840;2022-11-23T00:01:26;9.90;99.90
1225;DHT22;602;48.000;7.840;2022-11-23T00:03:54;9.80;99.90
1225;DHT22;602;48.000;7.840;2022-11-23T00:06:22;9.80;99.90
1225;DHT22;602;48.000;7.840;2022-11-23T00:08:51;9.80;99.90
1225;DHT22;602;48.000;7.840;2022-11-23T00:11:19;9.80;99.90
1225;DHT22;602;48.000;7.840;2022-11-23T00:13:47;9.80;99.90
1225;DHT22;602;48.000;7.840;2022-11-23T00:16:16;9.80;99.90
1225;DHT22;602;48.000;7.840;2022-11-23T00:18:43;9.70;99.90
1225;DHT22;602;48.000;7.840;2022-11-23T00:21:12;9.70;99.90
1225;DHT22;602;48.000;7.840;2022-11-23T00:23:39;9.70;99.90
1225;DHT22;602;48.000;7.840;2022-11-23T00:26:06;9.80;99.90
1225;DHT22;602;48.000;7.840;2022-11-23T00:28:34;9.70;99.90
1225;DHT22;602;48.000;7.840;2022-11-23T00:31:04;9.70;99.90
1225;DHT22;602;48.000;7.840;2022-11-23T00:33:31;9.70;99.90
1225;DHT22;602;48.000;7.840;2022-11-23T00:35:59;9.80;99.90
1225;DHT22;602;48.000;7.840;2022-11-23T00:38:26;9.80;99.90
1225;DHT22;602;48.000;7.840;2022-11-23T00:40:57;9.70;99.90
1225;DHT22;602;48.000;7.840;2022-11-23T00:43:25;9.70;99.90
1225;DHT22;602;48.000;7.840;2022-11-23T00:46:03;9.70;99.90
1225;DHT22;602;48.000;7.840;2022-11-23T00:48:31;9.70;99.90
1225;DHT22;602;48.000;7.840;2022-11-23T00:50:59;9.70;99.90
1225;DHT22;602;48.000;7.840;2022-11-23T00:53:26;9.80;99.90
1225;DHT22;602;48.000;7.840;2022-11-23T00:55:53;9.70;99.90
1225;DHT22;602;48.000;7.840;2022-11-23T00:58:21;9.70;99.90
1225;DHT22;602;48.000;7.840;2022-11-23T01:00:47;9.70;99.90
1225;DHT22;602;48.000;7.840;2022-11-23T01:03:16;9.70;99.90
1225;DHT22;602;48.000;7.840;2022-11-23T01:05:43;9.70;99.90
1225;DHT22;602;48.000;7.840;2022-11-23T01:08:10;9.70;99.90
1225;DHT22;602;48.000;7.840;2022-11-23T01:10:36;9.80;99.90
1225;DHT22;602;48.000;7.840;2022-11-23T01:13:03;9.80;99.90
1225;DHT22;602;48.000;7.840;2022-11-23T01:15:30;9.80;99.90
1225;DHT22;602;48.000;7.840;2022-11-23T01:17:57;9.80;99.90
1225;DHT22;602;48.000;7.840;2022-11-23T01:20:25;9.70;99.90
1225;DHT22;602;48.000;7.840;2022-11-23T01:22:52;9.80;99.90
1225;DHT22;602;48.000;7.840;2022-11-23T01:25:19;9.70;99.90
1225;DHT22;602;48.000;7.840;2022-11-23T01:27:45;9.70;99.90
1225;DHT22;602;48.000;7.840;2022-11-23T01:30:13;9.70;99.90
1225;DHT22;602;48.000;7.840;2022-11-23T01:32:40;9.70;99.90
1225;DHT22;602;48.000;7.840;2022-11-23T01:35:07;9.70;99.90
1225;DHT22;602;48.000;7.840;2022-11-23T01:37:35;9.70;99.90
1225;DHT22;602;48.000;7.840;2022-11-23T01:40:02;9.70;99.90
1225;DHT22;602;48.000;7.840;2022-11-23T01:42:45;9.70;99.90
1225;DHT22;602;48.000;7.840;2022-11-23T01:45:35;9.70;99.90
1225;DHT22;602;48.000;7.840;2022-11-23T01:48:06;9.80;99.90
1225;DHT22;602;48.000;7.840;2022-11-23T01:50:35;9.80;99.90
1225;DHT22;602;48.000;7.840;2022-11-23T01:53:03;9.70;99.90
1225;DHT22;602;48.000;7.840;2022-11-23T01:55:30;9.70;99.90
1225;DHT22;602;48.000;7.840;2022-11-23T01:57:57;9.70;99.90
1225;DHT22;602;48.000;7.840;2022-11-23T02:00:24;9.70;99.90
1225;DHT22;602;48.000;7.840;2022-11-23T02:02:54;9.70;99.90
1225;DHT22;602;48.000;7.840;2022-11-23T02:05:24;9.60;99.90
1225;DHT22;602;48.000;7.840;2022-11-23T02:07:53;9.60;99.90
1225;DHT22;602;48.000;7.840;2022-11-23T02:10:22;9.60;99.90
1225;DHT22;602;48.000;7.840;2022-11-23T02:12:48;9.60;99.90
1225;DHT22;602;48.000;7.840;2022-11-23T02:15:15;9.60;99.90
1225;DHT22;602;48.000;7.840;2022-11-23T02:17:43;9.60;99.90
1225;DHT22;602;48.000;7.840;2022-11-23T02:20:11;9.70;99.90
1225;DHT22;602;48.000;7.840;2022-11-23T02:22:46;9.60;99.90
1225;DHT22;602;48.000;7.840;2022-11-23T02:25:34;9.70;99.90
1225;DHT22;602;48.000;7.840;2022-11-23T02:28:05;9.80;99.90
1225;DHT22;602;48.000;7.840;2022-11-23T02:30:33;9.80;99.90
1225;DHT22;602;48.000;7.840;2022-11-23T02:33:03;9.80;99.90
1225;DHT22;602;48.000;7.840;2022-11-23T02:35:30;9.70;99.90
1225;DHT22;602;48.000;7.840;2022-11-23T02:37:58;9.80;99.90
1225;DHT22;602;48.000;7.840;2022-11-23T02:40:28;9.70;99.90
1225;DHT22;602;48.000;7.840;2022-11-23T02:42:56;9.80;99.90
1225;DHT22;602;48.000;7.840;2022-11-23T02:45:32;9.90;99.90
1225;DHT22;602;48.000;7.840;2022-11-23T02:48:00;9.90;99.90
1225;DHT22;602;48.000;7.840;2022-11-23T02:50:27;9.90;99.90
1225;DHT22;602;48.000;7.840;2022-11-23T02:52:54;9.90;99.90
1225;DHT22;602;48.000;7.840;2022-11-23T02:55:21;10.00;99.90
1225;DHT22;602;48.000;7.840;2022-11-23T02:57:48;10.10;99.90
1225;DHT22;602;48.000;7.840;2022-11-23T03:00:15;10.10;99.90
1225;DHT22;602;48.000;7.840;2022-11-23T03:02:43;10.10;99.90
1225;DHT22;602;48.000;7.840;2022-11-23T03:05:11;10.10;99.90
1225;DHT22;602;48.000;7.840;2022-11-23T03:07:38;10.00;99.90
1225;DHT22;602;48.000;7.840;2022-11-23T03:10:06;9.90;99.90
1225;DHT22;602;48.000;7.840;2022-11-23T03:12:33;10.00;99.90
1225;DHT22;602;48.000;7.840;2022-11-23T03:15:00;10.10;99.90
1225;DHT22;602;48.000;7.840;2022-11-23T03:17:27;10.10;99.90
1225;DHT22;602;48.000;7.840;2022-11-23T03:19:55;10.20;99.90
1225;DHT22;602;48.000;7.840;2022-11-23T03:22:23;10.20;99.90
1225;DHT22;602;48.000;7.840;2022-11-23T03:24:50;10.20;99.90
1225;DHT22;602;48.000;7.840;2022-11-23T03:27:17;10.20;99.90
1225;DHT22;602;48.000;7.840;2022-11-23T03:29:45;10.30;99.90
1225;DHT22;602;48.000;7.840;2022-11-23T03:32:12;10.30;99.90
1225;DHT22;602;48.000;7.840;2022-11-23T03:34:39;10.30;99.90
1225;DHT22;602;48.000;7.840;2022-11-23T03:37:07;10.30;99.90
1225;DHT22;602;48.000;7.840;2022-11-23T03:39:34;10.30;99.90
1225;DHT22;602;48.000;7.840;2022-11-23T03:42:01;10.20;99.90
1225;DHT22;602;48.000;7.840;2022-11-23T03:44:28;10.20;99.90
1225;DHT22;602;48.000;7.840;2022-11-23T03:46:55;10.20;99.90
1225;DHT22;602;48.000;7.840;2022-11-23T03:49:22;10.20;99.90
1225;DHT22;602;48.000;7.840;2022-11-23T03:51:49;10.10;99.90
1225;DHT22;602;48.000;7.840;2022-11-23T03:54:17;10.20;99.90
1225;DHT22;602;48.000;7.840;2022-11-23T03:56:44;10.10;99.90
1225;DHT22;602;48.000;7.840;2022-11-23T03:59:11;10.10;99.90
1225;DHT22;602;48.000;7.840;2022-11-23T04:01:38;10.00;99.90
1225;DHT22;602;48.000;7.840;2022-11-23T04:04:05;10.00;99.90
1225;DHT22;602;48.000;7.840;2022-11-23T04:06:32;10.10;99.90
1225;DHT22;602;48.000;7.840;2022-11-23T04:08:59;10.10;99.90
1225;DHT22;602;48.000;7.840;2022-11-23T04:11:27;10.10;99.90
1225;DHT22;602;48.000;7.840;2022-11-23T04:13:54;10.10;99.90
1225;DHT22;602;48.000;7.840;2022-11-23T04:16:21;10.20;99.90
1225;DHT22;602;48.000;7.840;2022-11-23T04:18:48;10.00;99.90
1225;DHT22;602;48.000;7.840;2022-11-23T04:21:15;10.00;99.90
1225;DHT22;602;48.000;7.840;2022-11-23T04:23:42;10.00;99.90
1225;DHT22;602;48.000;7.840;2022-11-23T04:26:09;10.00;99.90
1225;DHT22;602;48.000;7.840;2022-11-23T04:28:38;9.90;99.90
1225;DHT22;602;48.000;7.840;2022-11-23T04:31:05;9.70;99.90
1225;DHT22;602;48.000;7.840;2022-11-23T04:33:32;9.70;99.90
1225;DHT22;602;48.000;7.840;2022-11-23T04:35:59;9.70;99.90
1225;DHT22;602;48.000;7.840;2022-11-23T04:38:26;9.70;99.90
1225;DHT22;602;48.000;7.840;2022-11-23T04:40:53;9.70;99.90
1225;DHT22;602;48.000;7.840;2022-11-23T04:43:20;9.80;99.90
1225;DHT22;602;48.000;7.840;2022-11-23T04:45:48;9.70;99.90
1225;DHT22;602;48.000;7.840;2022-11-23T04:48:15;9.70;99.90
1225;DHT22;602;48.000;7.840;2022-11-23T04:50:42;9.60;99.90
1225;DHT22;602;48.000;7.840;2022-11-23T04:53:11;9.60;99.90
1225;DHT22;602;48.000;7.840;2022-11-23T04:55:38;9.50;99.90
1225;DHT22;602;48.000;7.840;2022-11-23T04:58:05;9.50;99.90
1225;DHT22;602;48.000;7.840;2022-11-23T05:00:32;9.50;99.90
1225;DHT22;602;48.000;7.840;2022-11-23T05:03:00;9.50;99.90
1225;DHT22;602;48.000;7.840;2022-11-23T05:05:27;9.50;99.90
1225;DHT22;602;48.000;7.840;2022-11-23T05:07:55;9.50;99.90
1225;DHT22;602;48.000;7.840;2022-11-23T05:10:22;9.40;99.90
1225;DHT22;602;48.000;7.840;2022-11-23T05:12:49;9.40;99.90
1225;DHT22;602;48.000;7.840;2022-11-23T05:15:16;9.30;99.90
1225;DHT22;602;48.000;7.840;2022-11-23T05:17:43;9.30;99.90
1225;DHT22;602;48.000;7.840;2022-11-23T05:20:12;9.20;99.90
1225;DHT22;602;48.000;7.840;2022-11-23T05:22:39;9.20;99.90
1225;DHT22;602;48.000;7.840;2022-11-23T05:25:07;9.20;99.90
1225;DHT22;602;48.000;7.840;2022-11-23T05:27:34;9.20;99.90
1225;DHT22;602;48.000;7.840;2022-11-23T05:30:02;9.20;99.90
1225;DHT22;602;48.000;7.840;2022-11-23T05:32:29;9.00;99.90
1225;DHT22;602;48.000;7.840;2022-11-23T05:34:56;8.80;99.90
1225;DHT22;602;48.000;7.840;2022-11-23T05:37:24;8.70;99.90
1225;DHT22;602;48.000;7.840;2022-11-23T05:39:52;8.60;99.90
1225;DHT22;602;48.000;7.840;2022-11-23T05:42:19;8.60;99.90
1225;DHT22;602;48.000;7.840;2022-11-23T05:44:48;8.40;99.90
1225;DHT22;602;48.000;7.840;2022-11-23T05:47:15;8.40;99.90
1225;DHT22;602;48.000;7.840;2022-11-23T05:49:42;8.20;99.90
1225;DHT22;602;48.000;7.840;2022-11-23T05:52:09;7.90;99.90
1225;DHT22;602;48.000;7.840;2022-11-23T05:54:38;7.80;99.90
1225;DHT22;602;48.000;7.840;2022-11-23T05:57:05;7.90;99.90
1225;DHT22;602;48.000;7.840;2022-11-23T05:59:32;7.90;99.90
1225;DHT22;602;48.000;7.840;2022-11-23T06:01:59;7.70;99.90
1225;DHT22;602;48.000;7.840;2022-11-23T06:04:26;7.50;99.90
1225;DHT22;602;48.000;7.840;2022-11-23T06:06:53;7.40;99.90
1225;DHT22;602;48.000;7.840;2022-11-23T06:09:21;7.50;99.90
1225;DHT22;602;48.000;7.840;2022-11-23T06:11:50;7.50;99.90
1225;DHT22;602;48.000;7.840;2022-11-23T06:14:17;7.50;99.90
1225;DHT22;602;48.000;7.840;2022-11-23T06:16:44;7.40;99.90
1225;DHT22;602;48.000;7.840;2022-11-23T06:19:11;7.40;99.90
1225;DHT22;602;48.000;7.840;2022-11-23T06:21:38;7.30;99.90
1225;DHT22;602;48.000;7.840;2022-11-23T06:24:05;7.20;99.90
1225;DHT22;602;48.000;7.840;2022-11-23T06:26:32;6.90;99.90
1225;DHT22;602;48.000;7.840;2022-11-23T06:29:01;6.90;99.90
1225;DHT22;602;48.000;7.840;2022-11-23T06:47:45;7.00;99.90
1225;DHT22;602;48.000;7.840;2022-11-23T06:50:12;7.00;99.90
1225;DHT22;602;48.000;7.840;2022-11-23T06:52:39;6.90;99.90
1225;DHT22;602;48.000;7.840;2022-11-23T06:55:06;6.90;99.90
1225;DHT22;602;48.000;7.840;2022-11-23T06:57:33;7.00;99.90
1225;DHT22;602;48.000;7.840;2022-11-23T07:00:00;7.00;99.90
1225;DHT22;602;48.000;7.840;2022-11-23T07:02:27;6.90;99.90
1225;DHT22;602;48.000;7.840;2022-11-23T07:04:55;7.00;99.90
1225;DHT22;602;48.000;7.840;2022-11-23T07:07:22;7.00;99.90
1225;DHT22;602;48.000;7.840;2022-11-23T07:09:49;7.00;99.90
1225;DHT22;602;48.000;7.840;2022-11-23T07:12:16;7.10;99.90
1225;DHT22;602;48.000;7.840;2022-11-23T07:14:42;7.10;99.90
1225;DHT22;602;48.000;7.840;2022-11-23T07:17:09;7.20;99.90
1225;DHT22;602;48.000;7.840;2022-11-23T07:19:36;7.00;99.90
1225;DHT22;602;48.000;7.840;2022-11-23T07:22:04;7.00;99.90
1225;DHT22;602;48.000;7.840;2022-11-23T07:24:31;6.90;99.90
1225;DHT22;602;48.000;7.840;2022-11-23T07:26:58;7.00;99.90
1225;DHT22;602;48.000;7.840;2022-11-23T07:29:25;6.90;99.90
1225;DHT22;602;48.000;7.840;2022-11-23T07:31:52;6.80;99.90
1225;DHT22;602;48.000;7.840;2022-11-23T07:34:19;6.60;99.90
1225;DHT22;602;48.000;7.840;2022-11-23T07:36:46;6.60;99.90
1225;DHT22;602;48.000;7.840;2022-11-23T07:39:14;6.70;99.90
1225;DHT22;602;48.000;7.840;2022-11-23T07:41:41;6.70;99.90
1225;DHT22;602;48.000;7.840;2022-11-23T07:44:08;6.60;99.90
1225;DHT22;602;48.000;7.840;2022-11-23T07:46:34;6.60;99.90
1225;DHT22;602;48.000;7.840;2022-11-23T07:49:01;6.70;99.90
1225;DHT22;602;48.000;7.840;2022-11-23T07:51:28;6.70;99.90
1225;DHT22;602;48.000;7.840;2022-11-23T07:53:55;6.70;99.90
1225;DHT22;602;48.000;7.840;2022-11-23T07:56:24;6.70;99.90
1225;DHT22;602;48.000;7.840;2022-11-23T07:58:50;6.70;99.90
1225;DHT22;602;48.000;7.840;2022-11-23T08:01:18;6.80;99.90
1225;DHT22;602;48.000;7.840;2022-11-23T08:03:45;6.80;99.90
1225;DHT22;602;48.000;7.840;2022-11-23T08:06:13;7.00;99.90
1225;DHT22;602;48.000;7.840;2022-11-23T08:08:40;7.10;99.90
1225;DHT22;602;48.000;7.840;2022-11-23T08:11:08;7.10;99.90
1225;DHT22;602;48.000;7.840;2022-11-23T08:13:36;7.30;99.90
1225;DHT22;602;48.000;7.840;2022-11-23T08:16:04;7.40;99.90
1225;DHT22;602;48.000;7.840;2022-11-23T08:18:31;7.60;99.90
1225;DHT22;602;48.000;7.840;2022-11-23T08:20:58;7.80;99.90
1225;DHT22;602;48.000;7.840;2022-11-23T08:23:26;8.00;99.90
1225;DHT22;602;48.000;7.840;2022-11-23T08:25:53;8.20;99.90
1225;DHT22;602;48.000;7.840;2022-11-23T08:28:20;8.40;99.90
1225;DHT22;602;48.000;7.840;2022-11-23T08:30:48;8.70;99.90
1225;DHT22;602;48.000;7.840;2022-11-23T08:33:15;8.90;99.90
1225;DHT22;602;48.000;7.840;2022-11-23T08:35:42;9.30;99.90
1225;DHT22;602;48.000;7.840;2022-11-23T08:38:10;9.60;99.90
1225;DHT22;602;48.000;7.840;2022-11-23T08:40:37;9.70;99.90
1225;DHT22;602;48.000;7.840;2022-11-23T08:43:04;10.10;99.90
1225;DHT22;602;48.000;7.840;2022-11-23T08:45:31;10.50;99.90
1225;DHT22;602;48.000;7.840;2022-11-23T08:47:59;10.80;99.90
1225;DHT22;602;48.000;7.840;2022-11-23T08:50:26;11.00;99.90
1225;DHT22;602;48.000;7.840;2022-11-23T08:52:54;11.10;99.90
1225;DHT22;602;48.000;7.840;2022-11-23T08:55:21;11.30;99.90
1225;DHT22;602;48.000;7.840;2022-11-23T08:57:48;11.40;99.90
1225;DHT22;602;48.000;7.840;2022-11-23T09:00:15;11.70;99.90
1225;DHT22;602;48.000;7.840;2022-11-23T09:02:42;11.90;99.90
1225;DHT22;602;48.000;7.840;2022-11-23T09:05:10;11.80;99.90
1225;DHT22;602;48.000;7.840;2022-11-23T09:07:38;12.10;99.90
1225;DHT22;602;48.000;7.840;2022-11-23T09:10:06;12.30;99.90
1225;DHT22;602;48.000;7.840;2022-11-23T09:12:33;12.20;99.90
1225;DHT22;602;48.000;7.840;2022-11-23T09:14:59;12.40;99.90
1225;DHT22;602;48.000;7.840;2022-11-23T09:17:26;12.50;99.90
1225;DHT22;602;48.000;7.840;2022-11-23T09:19:53;12.80;99.90
1225;DHT22;602;48.000;7.840;2022-11-23T09:22:21;12.90;99.90
1225;DHT22;602;48.000;7.840;2022-11-23T09:24:48;13.20;99.90
1225;DHT22;602;48.000;7.840;2022-11-23T09:27:15;13.40;99.90
1225;DHT22;602;48.000;7.840;2022-11-23T09:29:42;13.90;99.90
1225;DHT22;602;48.000;7.840;2022-11-23T09:32:10;13.90;99.90
1225;DHT22;602;48.000;7.840;2022-11-23T09:34:37;14.00;99.90
1225;DHT22;602;48.000;7.840;2022-11-23T09:37:03;14.10;99.90
1225;DHT22;602;48.000;7.840;2022-11-23T09:39:32;14.00;99.90
1225;DHT22;602;48.000;7.840;2022-11-23T09:42:24;14.10;99.90
1225;DHT22;602;48.000;7.840;2022-11-23T09:45:10;14.20;99.90
1225;DHT22;602;48.000;7.840;2022-11-23T09:47:53;14.30;99.90
1225;DHT22;602;48.000;7.840;2022-11-23T09:50:28;14.60;99.90
1225;DHT22;602;48.000;7.840;2022-11-23T09:53:01;14.50;99.90
1225;DHT22;602;48.000;7.840;2022-11-23T09:55:36;14.80;99.90
1225;DHT22;602;48.000;7.840;2022-11-23T09:58:06;14.90;99.90
1225;DHT22;602;48.000;7.840;2022-11-23T10:00:36;15.30;99.90
1225;DHT22;602;48.000;7.840;2022-11-23T10:03:03;15.40;99.90
1225;DHT22;602;48.000;7.840;2022-11-23T10:05:34;15.20;99.90
1225;DHT22;602;48.000;7.840;2022-11-23T10:08:11;15.30;99.90
1225;DHT22;602;48.000;7.840;2022-11-23T10:10:44;15.80;99.90
1225;DHT22;602;48.000;7.840;2022-11-23T10:13:29;16.00;99.90
1225;DHT22;602;48.000;7.840;2022-11-23T10:16:16;16.20;99.90
1225;DHT22;602;48.000;7.840;2022-11-23T10:18:54;16.30;99.90
1225;DHT22;602;48.000;7.840;2022-11-23T10:21:29;16.60;99.90
1225;DHT22;602;48.000;7.840;2022-11-23T10:24:09;16.40;99.90
1225;DHT22;602;48.000;7.840;2022-11-23T10:26:41;16.70;99.90
1225;DHT22;602;48.000;7.840;2022-11-23T10:29:13;17.10;99.90
1225;DHT22;602;48.000;7.840;2022-11-23T10:31:44;17.10;99.90
1225;DHT22;602;48.000;7.840;2022-11-23T10:34:13;17.10;99.90
1225;DHT22;602;48.000;7.840;2022-11-23T10:36:41;17.10;99.90
1225;DHT22;602;48.000;7.840;2022-11-23T10:39:19;17.20;99.90
1225;DHT22;602;48.000;7.840;2022-11-23T10:41:48;17.50;99.90
1225;DHT22;602;48.000;7.840;2022-11-23T10:44:28;17.80;99.90
1225;DHT22;602;48.000;7.840;2022-11-23T10:46:56;18.00;99.90
1225;DHT22;602;48.000;7.840;2022-11-23T10:49:24;18.20;99.90
1225;DHT22;602;48.000;7.840;2022-11-23T10:51:54;18.20;99.90
1225;DHT22;602;48.000;7.840;2022-11-23T10:54:25;18.00;99.90
1225;DHT22;602;48.000;7.840;2022-11-23T10:56:55;18.20;99.90
1225;DHT22;602;48.000;7.840;2022-11-23T10:59:31;18.20;99.90
1225;DHT22;602;48.000;7.840;2022-11-23T11:02:01;18.40;99.90
1225;DHT22;602;48.000;7.840;2022-11-23T11:04:28;18.50;99.90
1225;DHT22;602;48.000;7.840;2022-11-23T11:07:10;18.80;99.90
1225;DHT22;602;48.000;7.840;2022-11-23T11:09:48;18.80;99.90
1225;DHT22;602;48.000;7.840;2022-11-23T11:12:17;19.00;99.90
1225;DHT22;602;48.000;7.840;2022-11-23T11:14:54;18.70;99.90
1225;DHT22;602;48.000;7.840;2022-11-23T11:17:26;18.50;99.90
1225;DHT22;602;48.000;7.840;2022-11-23T11:19:53;18.40;99.90
1225;DHT22;602;48.000;7.840;2022-11-23T11:22:32;18.50;99.90
1225;DHT22;602;48.000;7.840;2022-11-23T11:25:01;18.40;99.90
1225;DHT22;602;48.000;7.840;2022-11-23T11:27:30;18.50;99.90
1225;DHT22;602;48.000;7.840;2022-11-23T11:30:03;18.70;99.90
1225;DHT22;602;48.000;7.840;2022-11-23T11:32:37;18.90;99.90
1225;DHT22;602;48.000;7.840;2022-11-23T11:35:10;19.00;99.90
1225;DHT22;602;48.000;7.840;2022-11-23T11:37:42;19.00;99.90
1225;DHT22;602;48.000;7.840;2022-11-23T11:40:16;19.20;99.90
1225;DHT22;602;48.000;7.840;2022-11-23T11:42:51;19.40;99.80
1225;DHT22;602;48.000;7.840;2022-11-23T11:45:23;19.60;98.90
1225;DHT22;602;48.000;7.840;2022-11-23T11:47:55;19.60;98.60
1225;DHT22;602;48.000;7.840;2022-11-23T11:50:27;19.60;98.10
1225;DHT22;602;48.000;7.840;2022-11-23T11:53:01;19.60;97.90
1225;DHT22;602;48.000;7.840;2022-11-23T11:55:35;19.70;98.90
1225;DHT22;602;48.000;7.840;2022-11-23T11:58:14;19.90;98.20
1225;DHT22;602;48.000;7.840;2022-11-23T12:00:42;19.80;97.80
1225;DHT22;602;48.000;7.840;2022-11-23T12:03:17;19.70;97.50
1225;DHT22;602;48.000;7.840;2022-11-23T12:05:48;19.80;96.90
1225;DHT22;602;48.000;7.840;2022-11-23T12:08:19;19.80;95.90
1225;DHT22;602;48.000;7.840;2022-11-23T12:10:50;19.70;95.70
1225;DHT22;602;48.000;7.840;2022-11-23T12:13:21;20.00;94.10
1225;DHT22;602;48.000;7.840;2022-11-23T12:15:53;20.00;94.10
1225;DHT22;602;48.000;7.840;2022-11-23T12:18:37;19.70;93.60
1225;DHT22;602;48.000;7.840;2022-11-23T12:21:17;19.50;93.70
1225;DHT22;602;48.000;7.840;2022-11-23T12:23:53;19.60;93.00
1225;DHT22;602;48.000;7.840;2022-11-23T12:26:28;19.60;92.40
1225;DHT22;602;48.000;7.840;2022-11-23T12:29:16;19.50;92.30
1225;DHT22;602;48.000;7.840;2022-11-23T12:31:49;19.50;92.70
1225;DHT22;602;48.000;7.840;2022-11-23T12:34:37;19.40;94.10
1225;DHT22;602;48.000;7.840;2022-11-23T12:37:37;19.10;93.20
1225;DHT22;602;48.000;7.840;2022-11-23T12:40:19;18.70;93.70
1225;DHT22;602;48.000;7.840;2022-11-23T12:42:49;18.60;93.40
1225;DHT22;602;48.000;7.840;2022-11-23T12:45:28;18.60;94.10
1225;DHT22;602;48.000;7.840;2022-11-23T12:48:16;18.30;94.80
1225;DHT22;602;48.000;7.840;2022-11-23T12:50:47;18.30;96.20
1225;DHT22;602;48.000;7.840;2022-11-23T12:53:29;18.20;95.80
1225;DHT22;602;48.000;7.840;2022-11-23T12:56:04;18.30;96.40
1225;DHT22;602;48.000;7.840;2022-11-23T12:58:36;18.10;95.60
1225;DHT22;602;48.000;7.840;2022-11-23T13:01:10;18.00;96.90
1225;DHT22;602;48.000;7.840;2022-11-23T13:04:17;17.80;95.50
1225;DHT22;602;48.000;7.840;2022-11-23T13:10:15;17.20;95.00
1225;DHT22;602;48.000;7.840;2022-11-23T13:13:02;16.90;96.40
1225;DHT22;602;48.000;7.840;2022-11-23T13:15:50;17.00;97.60
1225;DHT22;602;48.000;7.840;2022-11-23T13:18:33;16.90;98.20
1225;DHT22;602;48.000;7.840;2022-11-23T13:21:11;16.90;99.10
1225;DHT22;602;48.000;7.840;2022-11-23T13:23:41;16.70;97.90
1225;DHT22;602;48.000;7.840;2022-11-23T13:26:15;16.80;99.00
1225;DHT22;602;48.000;7.840;2022-11-23T13:28:42;16.90;99.50
1225;DHT22;602;48.000;7.840;2022-11-23T13:31:22;16.90;99.10
1225;DHT22;602;48.000;7.840;2022-11-23T13:33:52;16.90;99.40
1225;DHT22;602;48.000;7.840;2022-11-23T13:36:42;16.70;99.80
1225;DHT22;602;48.000;7.840;2022-11-23T13:40:01;16.70;99.90
1225;DHT22;602;48.000;7.840;2022-11-23T13:42:31;16.70;99.90
1225;DHT22;602;48.000;7.840;2022-11-23T13:45:25;16.50;99.30
1225;DHT22;602;48.000;7.840;2022-11-23T13:48:11;16.10;99.10
1225;DHT22;602;48.000;7.840;2022-11-23T13:50:55;15.90;99.60
1225;DHT22;602;48.000;7.840;2022-11-23T13:53:24;16.10;99.90
1225;DHT22;602;48.000;7.840;2022-11-23T13:55:53;16.30;99.90
1225;DHT22;602;48.000;7.840;2022-11-23T13:58:38;16.20;99.70
1225;DHT22;602;48.000;7.840;2022-11-23T14:01:06;16.00;99.90
1225;DHT22;602;48.000;7.840;2022-11-23T14:03:53;16.00;99.90
1225;DHT22;602;48.000;7.840;2022-11-23T14:06:42;16.10;99.90
1225;DHT22;602;48.000;7.840;2022-11-23T14:09:16;15.70;99.90
1225;DHT22;602;48.000;7.840;2022-11-23T14:12:03;15.50;99.90
1225;DHT22;602;48.000;7.840;2022-11-23T14:14:42;15.30;99.90
1225;DHT22;602;48.000;7.840;2022-11-23T14:17:39;15.10;99.90
1225;DHT22;602;48.000;7.840;2022-11-23T14:20:33;15.10;99.90
1225;DHT22;602;48.000;7.840;2022-11-23T14:23:18;15.30;99.90
1225;DHT22;602;48.000;7.840;2022-11-23T14:25:54;15.60;99.90
1225;DHT22;602;48.000;7.840;2022-11-23T14:28:35;15.70;99.90
1225;DHT22;602;48.000;7.840;2022-11-23T14:31:14;15.60;99.90
1225;DHT22;602;48.000;7.840;2022-11-23T14:33:51;15.60;99.90
1225;DHT22;602;48.000;7.840;2022-11-23T14:36:26;15.40;99.90
1225;DHT22;602;48.000;7.840;2022-11-23T14:41:55;15.60;99.90
1225;DHT22;602;48.000;7.840;2022-11-23T14:44:25;15.60;99.90
1225;DHT22;602;48.000;7.840;2022-11-23T14:46:59;15.50;99.90
1225;DHT22;602;48.000;7.840;2022-11-23T14:49:26;15.50;99.90
1225;DHT22;602;48.000;7.840;2022-11-23T14:51:54;15.50;99.90
1225;DHT22;602;48.000;7.840;2022-11-23T14:54:22;15.50;99.90
1225;DHT22;602;48.000;7.840;2022-11-23T14:56:51;15.40;99.90
1225;DHT22;602;48.000;7.840;2022-11-23T14:59:21;15.20;99.90
1225;DHT22;602;48.000;7.840;2022-11-23T15:01:50;15.10;99.90
1225;DHT22;602;48.000;7.840;2022-11-23T15:04:23;14.50;99.90
1225;DHT22;602;48.000;7.840;2022-11-23T15:06:56;14.50;99.90
1225;DHT22;602;48.000;7.840;2022-11-23T15:09:38;14.30;99.90
1225;DHT22;602;48.000;7.840;2022-11-23T15:12:17;14.30;99.90
1225;DHT22;602;48.000;7.840;2022-11-23T15:14:46;14.40;99.90
1225;DHT22;602;48.000;7.840;2022-11-23T15:17:13;14.50;99.90
1225;DHT22;602;48.000;7.840;2022-11-23T15:19:41;14.50;99.90
1225;DHT22;602;48.000;7.840;2022-11-23T15:22:16;14.50;99.90
1225;DHT22;602;48.000;7.840;2022-11-23T15:24:46;14.60;99.90
1225;DHT22;602;48.000;7.840;2022-11-23T15:27:15;14.50;99.90
1225;DHT22;602;48.000;7.840;2022-11-23T15:29:51;14.50;99.90
1225;DHT22;602;48.000;7.840;2022-11-23T15:32:22;14.40;99.90
1225;DHT22;602;48.000;7.840;2022-11-23T15:34:54;14.30;99.90
1225;DHT22;602;48.000;7.840;2022-11-23T15:37:23;14.00;99.90
1225;DHT22;602;48.000;7.840;2022-11-23T15:39:52;13.50;99.90
1225;DHT22;602;48.000;7.840;2022-11-23T15:42:21;13.50;99.90
1225;DHT22;602;48.000;7.840;2022-11-23T15:44:50;13.50;99.90
1225;DHT22;602;48.000;7.840;2022-11-23T15:47:20;13.70;99.90
1225;DHT22;602;48.000;7.840;2022-11-23T15:49:48;13.50;99.90
1225;DHT22;602;48.000;7.840;2022-11-23T15:52:17;13.50;99.90
1225;DHT22;602;48.000;7.840;2022-11-23T15:54:45;13.50;99.90
1225;DHT22;602;48.000;7.840;2022-11-23T15:57:16;13.50;99.90
1225;DHT22;602;48.000;7.840;2022-11-23T15:59:46;13.50;99.90
1225;DHT22;602;48.000;7.840;2022-11-23T16:02:15;13.50;99.90
1225;DHT22;602;48.000;7.840;2022-11-23T16:04:43;13.40;99.90
1225;DHT22;602;48.000;7.840;2022-11-23T16:07:18;13.20;99.90
1225;DHT22;602;48.000;7.840;2022-11-23T16:09:47;12.70;99.90
1225;DHT22;602;48.000;7.840;2022-11-23T16:12:24;12.80;99.90
1225;DHT22;602;48.000;7.840;2022-11-23T16:14:52;12.80;99.90
1225;DHT22;602;48.000;7.840;2022-11-23T16:17:20;12.80;99.90
1225;DHT22;602;48.000;7.840;2022-11-23T16:19:50;12.90;99.90
1225;DHT22;602;48.000;7.840;2022-11-23T16:22:26;12.90;99.90
1225;DHT22;602;48.000;7.840;2022-11-23T16:25:00;12.90;99.90
1225;DHT22;602;48.000;7.840;2022-11-23T16:27:28;12.80;99.90
1225;DHT22;602;48.000;7.840;2022-11-23T16:29:55;12.70;99.90
1225;DHT22;602;48.000;7.840;2022-11-23T16:32:27;12.70;99.90
1225;DHT22;602;48.000;7.840;2022-11-23T16:34:57;12.60;99.90
1225;DHT22;602;48.000;7.840;2022-11-23T16:37:32;12.70;99.90
1225;DHT22;602;48.000;7.840;2022-11-23T16:40:02;12.70;99.90
1225;DHT22;602;48.000;7.840;2022-11-23T16:42:30;12.40;99.90
1225;DHT22;602;48.000;7.840;2022-11-23T16:44:57;12.40;99.90
1225;DHT22;602;48.000;7.840;2022-11-23T16:47:25;12.40;99.90
1225;DHT22;602;48.000;7.840;2022-11-23T16:49:56;12.30;99.90
1225;DHT22;602;48.000;7.840;2022-11-23T16:52:23;12.30;99.90
1225;DHT22;602;48.000;7.840;2022-11-23T16:54:50;12.30;99.90
1225;DHT22;602;48.000;7.840;2022-11-23T16:57:26;12.30;99.90
1225;DHT22;602;48.000;7.840;2022-11-23T16:59:55;12.20;99.90
1225;DHT22;602;48.000;7.840;2022-11-23T17:02:23;11.90;99.90
1225;DHT22;602;48.000;7.840;2022-11-23T17:04:50;11.90;99.90
1225;DHT22;602;48.000;7.840;2022-11-23T17:07:16;11.80;99.90
1225;DHT22;602;48.000;7.840;2022-11-23T17:09:43;11.70;99.90